Time;durP1;ratioP1;P1;durP2;ratioP2;P2;SDS_P1;SDS_P2;PMS_P1;PMS_P2;Temp;Humidity;BMP_temperature;BMP_pressure;BME280_temperature;BME280_humidity;BME280_pressure;Samples;Min_cycle;Max_cycle;Signal;HPM_P1;HPM_P2
2023/02/24 00:00:30;;;;;;;8.38;5.50;;;;;;;17.48;45.29;100017.28;5112326;28;20047;-64
2023/02/24 00:03:04;;;;;;;9.02;5.15;;;;;;;17.44;45.41;100016.69;5112518;28;20104;-63
2023/02/24 00:05:38;;;;;;;8.43;5.30;;;;;;;17.43;45.24;100006.91;5112288;28;20439;-63
2023/02/24 00:08:06;;;;;;;8.00;5.40;;;;;;;17.41;45.37;100010.75;5112458;28;20108;-63
2023/02/24 00:10:36;;;;;;;8.48;5.55;;;;;;;17.38;45.28;100000.25;5112433;28;20459;-62
2023/02/24 00:13:04;;;;;;;9.18;6.00;;;;;;;17.35;45.56;99995.97;5112327;28;20465;-64
2023/02/24 00:15:33;;;;;;;8.85;5.53;;;;;;;17.35;45.40;99997.81;5112508;28;20039;-62
2023/02/24 00:18:05;;;;;;;10.48;5.90;;;;;;;17.34;45.25;100005.06;5112289;28;20484;-63
2023/02/24 00:20:35;;;;;;;7.88;5.32;;;;;;;17.29;45.35;100001.09;5112254;28;20130;-62
2023/02/24 00:23:04;;;;;;;8.27;5.93;;;;;;;17.29;45.24;99990.31;5112232;28;20046;-64
2023/02/24 00:25:32;;;;;;;8.43;5.50;;;;;;;17.29;45.41;100001.09;5112290;28;20043;-63
2023/02/24 00:28:01;;;;;;;9.07;5.60;;;;;;;17.27;45.27;100003.06;5112234;28;20130;-63
2023/02/24 00:30:31;;;;;;;9.60;5.93;;;;;;;17.24;45.20;100000.66;5112346;28;20047;-63
2023/02/24 00:33:03;;;;;;;8.88;5.65;;;;;;;17.21;45.23;99990.19;5112359;28;20480;-63
2023/02/24 00:35:32;;;;;;;8.10;5.65;;;;;;;17.20;45.21;99983.09;5112292;28;20044;-63
2023/02/24 00:38:00;;;;;;;8.35;5.50;;;;;;;17.17;45.08;99981.50;5111896;28;20124;-63
2023/02/24 00:40:29;;;;;;;8.07;5.72;;;;;;;17.14;45.20;99977.25;5112316;28;20096;-63
2023/02/24 00:42:58;;;;;;;8.05;5.60;;;;;;;17.13;45.25;99980.94;5111930;28;20508;-63
2023/02/24 00:45:29;;;;;;;8.85;5.93;;;;;;;17.13;44.97;99980.94;5111999;28;20485;-63
2023/02/24 00:47:58;;;;;;;8.55;5.80;;;;;;;17.11;45.07;99980.25;5111982;28;20116;-63
2023/02/24 00:50:27;;;;;;;9.43;5.90;;;;;;;17.09;44.99;99973.28;5111959;28;20077;-63
2023/02/24 00:52:55;;;;;;;8.57;6.05;;;;;;;17.06;45.09;99963.63;5111860;28;20040;-63
2023/02/24 00:55:26;;;;;;;8.68;5.47;;;;;;;17.04;45.02;99960.22;5111874;28;20407;-64
2023/02/24 00:57:55;;;;;;;7.65;5.15;;;;;;;17.02;45.38;99962.22;5111836;28;20047;-63
2023/02/24 01:00:23;;;;;;;10.00;5.75;;;;;;;17.02;45.25;99962.22;5111914;28;20134;-64
2023/02/24 01:02:51;;;;;;;8.30;5.60;;;;;;;17.01;45.18;99954.28;5111785;28;20040;-63
2023/02/24 01:05:26;;;;;;;9.07;5.60;;;;;;;16.99;45.07;99962.50;5111779;28;20048;-64
2023/02/24 01:07:56;;;;;;;8.25;5.95;;;;;;;16.95;45.09;99944.91;5111865;28;20054;-63
2023/02/24 01:10:27;;;;;;;8.85;5.78;;;;;;;16.95;45.14;99952.97;5111851;28;20452;-63
2023/02/24 01:12:54;;;;;;;10.68;6.30;;;;;;;16.94;45.02;99948.59;5113713;28;20078;-63
2023/02/24 01:15:23;;;;;;;9.23;6.00;;;;;;;16.90;45.22;99944.47;5115571;28;20044;-64
2023/02/24 01:17:51;;;;;;;8.57;5.78;;;;;;;16.90;45.12;99940.94;5115471;28;20043;-63
2023/02/24 01:20:19;;;;;;;8.52;5.57;;;;;;;16.90;45.14;99936.41;5115469;28;20044;-63
2023/02/24 01:22:49;;;;;;;9.00;5.60;;;;;;;16.88;45.17;99930.28;5115413;28;20039;-63
2023/02/24 01:25:20;;;;;;;9.90;5.95;;;;;;;16.87;45.13;99921.34;5115391;28;20126;-64
2023/02/24 01:27:49;;;;;;;9.70;5.47;;;;;;;16.84;45.17;99916.25;5115299;28;20073;-64
2023/02/24 01:30:17;;;;;;;8.73;5.80;;;;;;;16.84;45.21;99915.41;5113777;28;20053;-64
2023/02/24 01:32:46;;;;;;;8.63;5.72;;;;;;;16.82;45.24;99914.69;5115211;28;20047;-64
2023/02/24 01:35:16;;;;;;;7.82;5.50;;;;;;;16.81;45.32;99915.69;5115182;28;20043;-64
2023/02/24 01:37:45;;;;;;;9.50;5.40;;;;;;;16.79;45.43;99901.50;5114967;28;20056;-64
2023/02/24 01:40:17;;;;;;;9.10;5.57;;;;;;;16.78;45.27;99889.03;5115075;28;20040;-63
2023/02/24 01:42:49;;;;;;;8.45;5.22;;;;;;;16.77;45.37;99881.94;5115037;28;20469;-64
2023/02/24 01:45:23;;;;;;;8.27;5.85;;;;;;;16.76;45.29;99888.31;5115129;27;20047;-64
2023/02/24 01:47:56;;;;;;;8.05;5.22;;;;;;;16.73;45.34;99885.91;5115110;28;20404;-64
2023/02/24 01:50:26;;;;;;;10.23;5.90;;;;;;;16.74;45.21;99887.63;5114910;28;20043;-64
2023/02/24 01:53:00;;;;;;;9.77;6.13;;;;;;;16.70;45.23;99876.28;5114836;28;20051;-64
2023/02/24 01:55:32;;;;;;;8.18;5.47;;;;;;;16.67;45.26;99875.66;5114755;28;20050;-64
2023/02/24 01:58:08;;;;;;;7.47;5.40;;;;;;;16.64;45.27;99871.41;5114811;28;20100;-64
2023/02/24 02:00:37;;;;;;;9.77;5.90;;;;;;;16.67;45.38;99875.66;5114772;28;20444;-64
2023/02/24 02:03:15;;;;;;;8.13;5.50;;;;;;;16.64;45.37;99875.94;5114568;28;20067;-63
2023/02/24 02:05:47;;;;;;;7.72;4.93;;;;;;;16.64;45.38;99875.94;5114583;28;20616;-64
2023/02/24 02:08:17;;;;;;;8.40;5.68;;;;;;;16.64;45.39;99873.25;5114586;28;20051;-62
2023/02/24 02:10:46;;;;;;;8.98;5.47;;;;;;;16.63;45.49;99874.25;5114517;28;20039;-63
2023/02/24 02:13:19;;;;;;;8.73;6.00;;;;;;;16.59;45.43;99858.34;5114442;28;20051;-63
2023/02/24 02:16:01;;;;;;;7.57;5.43;;;;;;;16.59;45.59;99865.59;5114450;28;20047;-62
2023/02/24 02:18:42;;;;;;;8.35;5.75;;;;;;;16.57;45.67;99859.50;5114247;28;20063;-62
2023/02/24 02:21:48;;;;;;;9.32;5.50;;;;;;;16.55;45.58;99851.56;5114374;27;20570;-64
2023/02/24 02:24:36;;;;;;;8.27;4.97;;;;;;;16.54;45.59;99852.56;5113122;28;20043;-63
2023/02/24 02:27:28;;;;;;;8.73;6.07;;;;;;;16.51;45.53;99844.78;5114354;28;20380;-64
2023/02/24 02:30:34;;;;;;;7.68;5.25;;;;;;;16.50;45.70;99837.69;5114111;28;20548;-63
2023/02/24 02:33:26;;;;;;;9.13;5.47;;;;;;;16.49;45.69;99846.72;5111103;28;20043;-63
2023/02/24 02:36:06;;;;;;;7.85;5.65;;;;;;;16.49;45.72;99846.72;5114050;28;20110;-63
2023/02/24 02:38:41;;;;;;;8.50;5.18;;;;;;;16.45;45.79;99831.84;5113936;28;20113;-63
2023/02/24 02:41:20;;;;;;;8.60;5.30;;;;;;;16.48;45.70;99838.78;5114075;28;20404;-63
2023/02/24 02:43:54;;;;;;;9.60;5.50;;;;;;;16.42;45.74;99831.28;5114184;28;20040;-63
2023/02/24 02:46:33;;;;;;;;;;;;;;;16.45;45.67;99845.31;5114535;28;20071;-63
2023/02/24 02:49:11;;;;;;;10.02;5.57;;;;;;;16.43;45.89;99836.53;5114077;28;19987;-62
2023/02/24 02:51:46;;;;;;;8.18;5.22;;;;;;;16.42;45.68;99832.16;5113932;28;20050;-64
2023/02/24 02:54:20;;;;;;;8.40;5.28;;;;;;;16.40;45.77;99820.66;5113676;27;20075;-63
2023/02/24 02:56:52;;;;;;;8.93;5.40;;;;;;;16.40;45.80;99831.41;5114004;28;20051;-64
2023/02/24 02:59:24;;;;;;;7.82;4.70;;;;;;;16.39;45.81;99826.16;5114011;28;20040;-64
2023/02/24 03:02:00;;;;;;;8.02;5.47;;;;;;;16.38;45.77;99821.78;5113832;28;20046;-63
2023/02/24 03:04:29;;;;;;;7.90;5.25;;;;;;;16.36;45.93;99826.47;5113297;27;20495;-64
2023/02/24 03:07:02;;;;;;;7.80;5.00;;;;;;;16.35;45.86;99817.53;5113471;28;20035;-63
2023/02/24 03:09:35;;;;;;;7.72;4.82;;;;;;;16.35;45.76;99822.91;5113553;28;20044;-63
2023/02/24 03:12:07;;;;;;;9.02;5.30;;;;;;;16.34;45.93;99818.53;5113414;28;20051;-64
2023/02/24 03:14:39;;;;;;;8.23;5.30;;;;;;;16.33;45.92;99821.38;5113350;28;20126;-64
2023/02/24 03:17:13;;;;;;;8.30;5.22;;;;;;;16.31;45.78;99816.13;5113185;28;20047;-64
2023/02/24 03:19:52;;;;;;;7.80;5.40;;;;;;;16.30;45.87;99811.72;5113529;28;20043;-63
2023/02/24 03:22:32;;;;;;;7.22;4.93;;;;;;;16.29;45.92;99796.56;5113177;28;20097;-63
2023/02/24 03:25:02;;;;;;;9.02;5.57;;;;;;;16.26;45.89;99788.78;5113000;28;20050;-62
2023/02/24 03:27:38;;;;;;;8.50;5.43;;;;;;;16.27;46.00;99798.53;5112985;28;20449;-63
2023/02/24 03:30:14;;;;;;;8.82;4.85;;;;;;;16.27;45.95;99798.53;5113084;28;20533;-64
2023/02/24 03:32:54;;;;;;;8.60;5.30;;;;;;;16.25;46.09;99795.16;5112948;28;20048;-63
2023/02/24 03:35:25;;;;;;;8.38;5.20;;;;;;;16.24;45.97;99798.81;5112766;28;20043;-63
2023/02/24 03:37:56;;;;;;;8.20;5.25;;;;;;;16.23;45.98;99802.50;5112563;28;20458;-63
2023/02/24 03:40:31;;;;;;;9.48;5.22;;;;;;;16.22;46.02;99796.28;5112773;28;20492;-63
2023/02/24 03:43:04;;;;;;;8.38;5.40;;;;;;;16.15;46.08;99778.13;5112822;28;20047;-63
2023/02/24 03:45:36;;;;;;;7.30;4.83;;;;;;;16.21;45.87;99780.25;5112805;28;20100;-63
2023/02/24 03:48:06;;;;;;;7.15;4.90;;;;;;;16.19;46.08;99782.22;5112776;28;20047;-63
2023/02/24 03:50:36;;;;;;;7.75;4.80;;;;;;;16.19;45.97;99782.22;5112628;28;20089;-63
2023/02/24 03:53:21;;;;;;;7.03;5.05;;;;;;;16.18;46.08;99788.59;5112714;28;20075;-63
2023/02/24 03:56:00;;;;;;;8.05;5.35;;;;;;;16.14;46.01;99788.03;5112760;28;20048;-64
2023/02/24 03:58:38;;;;;;;6.90;4.57;;;;;;;16.14;46.03;99781.81;5112542;28;20077;-63
2023/02/24 04:01:14;;;;;;;7.15;4.93;;;;;;;16.14;45.98;99788.03;5112443;28;20122;-64
2023/02/24 04:03:56;;;;;;;7.38;4.90;;;;;;;16.11;46.02;99772.16;5112537;28;20074;-63
2023/02/24 04:06:34;;;;;;;9.35;4.90;;;;;;;16.09;46.15;99767.91;5112414;28;20119;-63
2023/02/24 04:09:12;;;;;;;9.05;5.75;;;;;;;16.11;46.20;99763.25;5112443;28;20046;-63
2023/02/24 04:11:46;;;;;;;7.55;4.80;;;;;;;16.09;45.96;99757.16;5112963;28;20055;-63
2023/02/24 04:14:23;;;;;;;7.63;5.10;;;;;;;16.09;46.20;99762.53;5112603;28;20054;-64
2023/02/24 04:16:59;;;;;;;7.00;4.90;;;;;;;16.07;46.00;99753.75;5112377;28;20043;-64
2023/02/24 04:19:29;;;;;;;7.63;5.20;;;;;;;16.07;45.84;99753.75;5112245;28;20074;-64
2023/02/24 04:21:59;;;;;;;8.25;5.38;;;;;;;16.02;46.00;99746.97;5112220;28;20465;-64
2023/02/24 04:24:32;;;;;;;7.70;5.53;;;;;;;16.04;45.87;99738.75;5112163;28;20105;-64
2023/02/24 04:27:05;;;;;;;8.90;5.40;;;;;;;16.02;46.01;99736.22;5112243;28;20048;-64
2023/02/24 04:29:39;;;;;;;9.30;5.70;;;;;;;15.98;46.13;99729.41;5112314;28;20035;-64
2023/02/24 04:32:10;;;;;;;9.15;5.20;;;;;;;15.99;46.02;99725.72;5112116;28;20043;-63
2023/02/24 04:34:40;;;;;;;8.05;5.35;;;;;;;16.01;45.95;99723.72;5112181;28;20063;-64
2023/02/24 04:37:08;;;;;;;7.55;5.13;;;;;;;15.99;46.11;99728.41;5112067;28;20052;-64
2023/02/24 04:39:38;;;;;;;7.22;4.93;;;;;;;15.99;46.12;99728.41;5112157;28;20472;-64
2023/02/24 04:42:07;;;;;;;7.15;4.72;;;;;;;15.98;46.19;99726.69;5112046;28;20511;-64
2023/02/24 04:44:35;;;;;;;8.45;5.28;;;;;;;15.96;46.18;99726.00;5111976;28;20055;-64
2023/02/24 04:47:03;;;;;;;8.88;5.30;;;;;;;15.94;46.16;99722.59;5112590;28;20445;-64
2023/02/24 04:49:32;;;;;;;9.43;5.43;;;;;;;15.92;46.25;99716.53;5116142;28;20040;-64
2023/02/24 04:52:01;;;;;;;7.93;5.00;;;;;;;15.93;46.18;99715.53;5115978;28;20059;-64
2023/02/24 04:54:29;;;;;;;7.53;5.03;;;;;;;15.90;46.11;99705.03;5115844;28;20092;-64
2023/02/24 04:56:58;;;;;;;7.72;5.20;;;;;;;15.91;46.11;99712.09;5115974;28;20581;-64
2023/02/24 04:59:27;;;;;;;8.20;5.47;;;;;;;15.90;46.33;99705.03;5115865;28;20039;-64
2023/02/24 05:02:00;;;;;;;8.20;5.50;;;;;;;15.92;46.20;99702.19;5115924;28;20488;-62
2023/02/24 05:04:30;;;;;;;9.15;5.40;;;;;;;15.89;46.28;99692.56;5115976;28;20393;-62
2023/02/24 05:06:59;;;;;;;8.00;5.30;;;;;;;15.89;46.27;99700.66;5115686;28;20494;-64
2023/02/24 05:09:28;;;;;;;6.45;4.30;;;;;;;15.86;46.36;99692.88;5115843;28;20043;-64
2023/02/24 05:11:59;;;;;;;8.35;5.57;;;;;;;15.85;46.30;99696.53;5115586;28;20048;-62
2023/02/24 05:14:27;;;;;;;8.15;5.60;;;;;;;15.86;46.13;99692.88;5115651;28;20046;-64
2023/02/24 05:16:59;;;;;;;7.93;5.22;;;;;;;15.85;46.21;99691.16;5115618;28;20056;-64
2023/02/24 05:22:21;;;;;;;;;;;;;;;15.84;46.17;99691.31;5091041;28;20049;-64
2023/02/24 05:24:50;;;;;;;9.20;5.22;;;;;;;15.81;46.17;99684.34;5115261;28;19965;-64
2023/02/24 05:27:19;;;;;;;7.68;4.82;;;;;;;15.82;46.23;99686.03;5115346;28;20054;-63
2023/02/24 05:29:48;;;;;;;8.63;5.32;;;;;;;15.80;46.10;99684.50;5115401;28;20061;-63
2023/02/24 05:32:17;;;;;;;8.85;5.38;;;;;;;15.79;46.02;99680.97;5115324;28;20127;-63
2023/02/24 05:34:46;;;;;;;8.18;5.53;;;;;;;15.78;46.11;99681.09;5115129;28;20043;-64
2023/02/24 05:37:15;;;;;;;7.68;4.72;;;;;;;15.77;46.14;99680.25;5114880;28;20468;-64
2023/02/24 05:39:43;;;;;;;8.35;5.35;;;;;;;15.77;46.13;99671.34;5115196;28;20446;-64
2023/02/24 05:42:12;;;;;;;8.52;5.32;;;;;;;15.75;46.07;99660.72;5115207;28;20047;-64
2023/02/24 05:44:41;;;;;;;10.27;5.80;;;;;;;15.75;46.19;99668.78;5114988;28;20050;-64
2023/02/24 05:47:10;;;;;;;7.70;5.15;;;;;;;15.72;46.09;99663.66;5105035;28;20563;-64
2023/02/24 05:49:38;;;;;;;9.88;6.13;;;;;;;15.71;46.10;99667.34;5094366;28;20051;-64
2023/02/24 05:52:08;;;;;;;7.47;5.28;;;;;;;15.71;46.07;99672.72;5094360;28;20052;-63
2023/02/24 05:54:39;;;;;;;9.60;5.90;;;;;;;15.69;46.10;99667.50;5111439;28;20047;-65
2023/02/24 05:57:10;;;;;;;7.63;5.40;;;;;;;15.71;46.08;99678.09;5114813;28;20113;-64
2023/02/24 05:59:41;;;;;;;8.40;5.43;;;;;;;15.68;46.21;99673.00;5103601;28;20048;-63
2023/02/24 06:02:11;;;;;;;8.80;5.80;;;;;;;15.67;46.19;99674.00;5094027;28;20048;-63
2023/02/24 06:04:49;;;;;;;8.85;5.47;;;;;;;15.66;46.22;99669.63;5094308;28;20055;-63
2023/02/24 06:07:21;;;;;;;8.02;5.03;;;;;;;15.66;46.22;99673.16;5094020;28;20101;-63
2023/02/24 06:09:52;;;;;;;7.72;5.32;;;;;;;15.64;46.37;99671.59;5093891;28;20048;-64
2023/02/24 06:12:23;;;;;;;8.70;5.38;;;;;;;15.61;46.35;99666.50;5097505;28;20043;-62
2023/02/24 06:14:52;;;;;;;8.15;5.18;;;;;;;15.63;46.29;99670.75;5114304;28;20480;-62
2023/02/24 06:17:21;;;;;;;8.80;5.50;;;;;;;15.64;46.36;99674.28;5114286;28;20394;-63
2023/02/24 06:19:52;;;;;;;8.25;5.43;;;;;;;15.63;46.29;99675.25;5114370;28;20050;-64
2023/02/24 06:22:23;;;;;;;9.63;6.03;;;;;;;15.62;46.33;99670.88;5114356;28;20046;-63
2023/02/24 06:24:53;;;;;;;9.20;5.53;;;;;;;15.60;46.39;99675.50;5113983;28;20090;-65
2023/02/24 06:27:23;;;;;;;7.70;5.22;;;;;;;15.60;46.28;99670.13;5113825;28;20480;-63
2023/02/24 06:29:55;;;;;;;8.38;5.55;;;;;;;15.58;46.33;99666.75;5114048;28;20039;-63
2023/02/24 06:32:26;;;;;;;8.68;5.90;;;;;;;15.54;46.14;99665.31;5113961;28;20050;-64
2023/02/24 06:34:56;;;;;;;8.57;5.68;;;;;;;15.55;46.42;99669.72;5113775;28;20444;-63
2023/02/24 06:37:24;;;;;;;9.23;6.18;;;;;;;15.56;46.29;99668.72;5122728;27;20504;-63
2023/02/24 06:39:52;;;;;;;9.10;6.05;;;;;;;15.55;46.37;99675.09;5113530;28;20484;-62
2023/02/24 06:42:21;;;;;;;8.75;5.38;;;;;;;15.54;46.29;99673.38;5113932;28;20044;-64
2023/02/24 06:44:49;;;;;;;9.00;5.95;;;;;;;15.54;46.27;99676.94;5113766;28;20048;-63
2023/02/24 06:47:21;;;;;;;8.55;5.63;;;;;;;15.55;46.29;99675.09;5113520;28;20126;-65
2023/02/24 06:49:49;;;;;;;9.25;5.90;;;;;;;15.55;46.39;99670.56;5113503;28;20063;-63
2023/02/24 06:52:18;;;;;;;10.50;5.60;;;;;;;15.53;46.44;99663.59;5113167;28;20047;-64
2023/02/24 06:54:48;;;;;;;8.82;5.70;;;;;;;15.53;46.47;99663.59;5113141;28;20043;-65
2023/02/24 06:57:19;;;;;;;8.55;5.78;;;;;;;15.51;46.44;99661.06;5113177;28;20061;-65
2023/02/24 06:59:47;;;;;;;8.95;6.00;;;;;;;15.51;46.53;99649.47;5113445;28;20407;-66
2023/02/24 07:02:17;;;;;;;10.02;5.78;;;;;;;15.51;46.47;99649.47;5113481;28;20050;-64
2023/02/24 07:04:47;;;;;;;9.27;6.40;;;;;;;15.51;46.29;99644.09;5113776;28;20094;-66
2023/02/24 07:07:16;;;;;;;8.75;5.75;;;;;;;15.49;46.45;99646.06;5113170;28;20139;-63
2023/02/24 07:09:44;;;;;;;10.15;6.13;;;;;;;15.50;46.42;99643.22;5112912;28;20067;-64
2023/02/24 07:12:19;;;;;;;9.20;6.47;;;;;;;15.51;46.37;99638.72;5111974;28;20059;-64
2023/02/24 07:14:49;;;;;;;9.60;6.03;;;;;;;15.48;46.54;99630.94;5113193;28;20104;-63
2023/02/24 07:17:18;;;;;;;9.63;5.82;;;;;;;15.48;46.39;99639.84;5112763;28;20042;-64
2023/02/24 07:19:48;;;;;;;8.52;6.15;;;;;;;15.45;46.35;99635.59;5113099;28;20052;-64
2023/02/24 07:22:16;;;;;;;9.93;5.93;;;;;;;15.43;46.37;99632.19;5113091;28;20127;-64
2023/02/24 07:24:45;;;;;;;7.97;5.68;;;;;;;15.49;46.58;99640.69;5112689;28;20499;-64
2023/02/24 07:27:20;;;;;;;10.60;6.25;;;;;;;15.48;46.43;99633.63;5112180;28;20500;-64
2023/02/24 07:29:50;;;;;;;9.05;6.13;;;;;;;15.43;46.37;99626.81;5112742;28;20296;-65
2023/02/24 07:32:21;;;;;;;9.23;6.13;;;;;;;15.49;46.64;99632.63;5113032;28;20050;-64
2023/02/24 07:34:51;;;;;;;8.73;6.15;;;;;;;15.49;46.70;99629.94;5112778;28;20059;-64
2023/02/24 07:37:22;;;;;;;9.68;6.10;;;;;;;15.50;46.68;99626.25;5112613;28;20060;-63
2023/02/24 07:39:50;;;;;;;10.27;6.45;;;;;;;15.50;46.65;99627.09;5112762;28;20126;-62
2023/02/24 07:42:18;;;;;;;8.50;6.05;;;;;;;15.50;46.57;99616.34;5112743;28;20126;-63
2023/02/24 07:44:47;;;;;;;8.38;6.28;;;;;;;15.50;46.68;99624.41;5112627;28;20094;-64
2023/02/24 07:47:16;;;;;;;9.48;6.35;;;;;;;15.50;46.56;99620.88;5112387;28;20400;-64
2023/02/24 07:49:45;;;;;;;8.55;5.85;;;;;;;15.51;46.78;99625.28;5112580;28;20152;-64
2023/02/24 07:52:15;;;;;;;9.98;6.95;;;;;;;15.52;46.68;99618.91;5112471;28;20550;-64
2023/02/24 07:54:48;;;;;;;8.32;6.32;;;;;;;15.52;46.67;99618.91;5111734;28;20092;-65
2023/02/24 07:57:17;;;;;;;;;;;;;;;15.57;47.12;99612.13;5108433;28;20069;-63
2023/02/24 07:59:46;;;;;;;10.23;5.63;;;;;;;15.63;46.79;99606.25;5112676;28;19920;-63
2023/02/24 08:02:15;;;;;;;9.15;5.95;;;;;;;15.73;46.90;99606.25;5112447;28;20377;-64
2023/02/24 08:04:48;;;;;;;9.25;5.70;;;;;;;15.83;46.83;99601.72;5111091;28;20043;-64
2023/02/24 08:07:23;;;;;;;8.50;5.70;;;;;;;15.92;46.77;99605.38;5110917;28;20051;-64
2023/02/24 08:10:12;;;;;;;7.97;6.00;;;;;;;16.00;46.84;99603.66;5112381;28;20039;-64
2023/02/24 08:12:46;;;;;;;9.05;6.03;;;;;;;16.06;46.69;99601.41;5111650;28;20047;-64
2023/02/24 08:15:22;;;;;;;8.60;5.85;;;;;;;16.10;46.72;99605.50;5111441;28;20039;-64
2023/02/24 08:17:52;;;;;;;9.73;6.05;;;;;;;16.13;46.59;99598.03;5112014;28;20105;-65
2023/02/24 08:20:28;;;;;;;8.00;5.88;;;;;;;16.17;46.68;99606.66;5112026;28;20473;-64
2023/02/24 08:22:58;;;;;;;9.15;5.97;;;;;;;16.17;46.60;99601.25;5110647;28;20426;-65
2023/02/24 08:25:34;;;;;;;9.80;6.30;;;;;;;16.16;46.56;99589.66;5111788;28;20043;-64
2023/02/24 08:28:05;;;;;;;10.70;6.18;;;;;;;16.19;46.65;99591.19;5111951;28;20047;-64
2023/02/24 08:30:38;;;;;;;8.75;5.80;;;;;;;16.20;46.73;99592.91;5112031;28;20446;-64
2023/02/24 08:33:09;;;;;;;8.80;6.00;;;;;;;16.23;46.62;99592.63;5111966;28;20346;-65
2023/02/24 08:35:43;;;;;;;8.40;5.85;;;;;;;16.25;46.63;99598.72;5111838;28;20040;-64
2023/02/24 08:38:16;;;;;;;8.60;5.60;;;;;;;16.24;46.63;99594.31;5111775;28;20062;-64
2023/02/24 08:40:50;;;;;;;8.85;5.97;;;;;;;16.25;46.76;99586.09;5112189;28;20040;-64
2023/02/24 08:43:31;;;;;;;8.73;6.20;;;;;;;16.25;46.69;99587.94;5112116;28;20408;-64
2023/02/24 08:46:04;;;;;;;9.57;6.22;;;;;;;16.24;46.67;99584.41;5111964;28;20076;-64
2023/02/24 08:48:37;;;;;;;8.93;5.83;;;;;;;16.27;46.79;99577.88;5111981;28;20043;-65
2023/02/24 08:51:09;;;;;;;;;;;;;;;16.27;46.78;99577.88;5112326;28;20055;-64
2023/02/24 08:53:40;;;;;;;8.80;5.97;;;;;;;16.28;46.48;99574.19;5111729;28;19927;-64
2023/02/24 08:56:11;;;;;;;9.98;6.60;;;;;;;16.28;46.63;99569.66;5111857;28;20449;-64
2023/02/24 08:58:45;;;;;;;8.40;5.80;;;;;;;16.29;46.75;99570.50;5111726;28;20403;-64
2023/02/24 09:01:22;;;;;;;8.18;6.22;;;;;;;16.32;46.63;99564.84;5111742;28;20047;-64
2023/02/24 09:03:55;;;;;;;9.90;6.82;;;;;;;16.32;46.72;99554.09;5111681;28;20054;-65
2023/02/24 09:06:34;;;;;;;10.50;7.13;;;;;;;16.32;46.52;99554.09;5111557;28;20054;-64
2023/02/24 09:09:21;;;;;;;11.10;6.50;;;;;;;16.33;46.66;99555.78;5111991;28;20442;-64
2023/02/24 09:11:54;;;;;;;9.45;6.38;;;;;;;16.34;46.75;99552.09;5111716;28;20046;-64
2023/02/24 09:14:25;;;;;;;10.60;7.00;;;;;;;16.34;46.58;99546.72;5111477;28;20123;-63
2023/02/24 09:17:04;;;;;;;9.40;6.72;;;;;;;16.36;46.54;99544.72;5111551;28;20051;-63
2023/02/24 09:20:22;;;;;;;9.70;6.70;;;;;;;16.37;46.56;99546.41;5111784;28;20039;-65
2023/02/24 09:22:31;;;;;;;10.00;6.70;;;;;;;16.37;46.49;99534.78;5111431;28;20047;-63
2023/02/24 09:25:20;;;;;;;10.23;6.20;;;;;;;16.37;46.63;99532.94;5111504;28;20051;-65
2023/02/24 09:27:54;;;;;;;9.73;6.57;;;;;;;16.38;46.45;99520.34;5111411;28;20051;-65
2023/02/24 09:30:35;;;;;;;8.57;6.38;;;;;;;16.40;46.82;99524.56;5111380;28;20044;-64
2023/02/24 09:33:16;;;;;;;10.45;6.63;;;;;;;16.41;46.60;99520.91;5111968;28;20043;-64
2023/02/24 09:35:46;;;;;;;9.65;6.65;;;;;;;16.44;46.60;99519.75;5114991;28;20092;-64
2023/02/24 09:38:16;;;;;;;11.13;6.80;;;;;;;16.43;46.44;99518.06;5114789;28;20062;-65
2023/02/24 09:40:48;;;;;;;9.20;6.78;;;;;;;16.45;46.67;99516.91;5114968;28;20043;-64
2023/02/24 09:43:23;;;;;;;8.55;6.57;;;;;;;16.43;46.44;99508.16;5114978;28;20396;-64
2023/02/24 09:45:58;;;;;;;10.23;6.82;;;;;;;16.46;46.49;99507.84;5115259;28;20047;-64
2023/02/24 09:48:42;;;;;;;9.88;6.88;;;;;;;16.52;46.85;99512.66;5114786;28;20413;-64
2023/02/24 09:51:20;;;;;;;9.75;6.65;;;;;;;16.53;46.51;99517.03;5114956;28;20044;-64
2023/02/24 09:53:53;;;;;;;10.10;6.60;;;;;;;16.55;46.70;99506.97;5114858;28;20078;-63
2023/02/24 09:56:35;;;;;;;10.55;7.22;;;;;;;16.59;46.70;99508.34;5114566;28;20480;-64
2023/02/24 09:59:12;;;;;;;9.70;6.30;;;;;;;16.60;46.75;99495.75;5114501;28;20434;-63
2023/02/24 10:01:46;;;;;;;10.55;7.32;;;;;;;16.61;46.74;99492.06;5114750;28;20073;-63
2023/02/24 10:04:26;;;;;;;10.38;7.10;;;;;;;16.63;46.67;99486.53;5114520;28;20047;-65
2023/02/24 10:07:01;;;;;;;9.77;6.97;;;;;;;16.69;46.64;99494.88;5114239;28;20138;-64
2023/02/24 10:09:35;;;;;;;10.05;7.25;;;;;;;16.68;46.88;99490.47;5114297;28;20074;-63
2023/02/24 10:12:15;;;;;;;10.02;6.72;;;;;;;16.70;46.92;99482.28;5114245;28;20052;-64
2023/02/24 10:14:51;;;;;;;10.95;7.13;;;;;;;16.69;46.48;99480.56;5114320;28;20047;-64
2023/02/24 10:17:38;;;;;;;11.27;7.32;;;;;;;16.70;46.77;99487.66;5114276;28;20043;-64
2023/02/24 10:20:29;;;;;;;10.25;7.55;;;;;;;16.69;46.81;99475.16;5114550;28;20055;-64
2023/02/24 10:23:08;;;;;;;9.70;7.05;;;;;;;16.69;46.72;99469.78;5114264;28;20097;-64
2023/02/24 10:25:52;;;;;;;10.23;6.93;;;;;;;16.70;46.62;99460.75;5114000;28;20047;-64
2023/02/24 10:28:34;;;;;;;10.23;6.97;;;;;;;16.73;46.75;99466.66;5114016;28;20082;-65
2023/02/24 10:31:23;;;;;;;11.18;7.30;;;;;;;16.73;46.85;99457.72;5114056;28;20138;-64
2023/02/24 10:33:55;;;;;;;11.57;7.40;;;;;;;16.74;46.81;99448.66;5113858;28;20066;-64
2023/02/24 10:36:33;;;;;;;9.88;6.80;;;;;;;16.74;46.79;99451.34;5113683;28;20044;-64
2023/02/24 10:39:09;;;;;;;10.68;7.15;;;;;;;16.75;46.82;99436.88;5113735;28;20500;-64
2023/02/24 10:41:46;;;;;;;10.45;7.28;;;;;;;16.76;46.79;99428.66;5113958;28;20428;-64
2023/02/24 10:44:23;;;;;;;10.10;7.28;;;;;;;16.78;46.75;99425.78;5113250;28;20108;-64
2023/02/24 10:47:10;;;;;;;11.25;7.97;;;;;;;16.79;46.89;99422.97;5113178;28;20056;-65
2023/02/24 10:49:55;;;;;;;10.80;7.93;;;;;;;16.82;46.85;99416.44;5113861;28;20047;-66
2023/02/24 10:52:35;;;;;;;13.68;8.02;;;;;;;16.83;47.04;99410.88;5113557;28;20052;-64
2023/02/24 10:55:26;;;;;;;11.38;7.70;;;;;;;16.85;46.95;99402.66;5113588;28;20051;-64
2023/02/24 10:58:04;;;;;;;11.43;7.75;;;;;;;16.88;46.98;99394.25;5113908;28;20050;-64
2023/02/24 11:03:34;;;;;;;11.80;7.57;;;;;;;16.98;47.08;99389.63;5113230;28;20078;-63
2023/02/24 11:06:18;;;;;;;11.90;7.80;;;;;;;17.01;47.11;99378.56;5113384;28;20052;-64
2023/02/24 11:09:17;;;;;;;12.18;7.55;;;;;;;17.08;47.09;99374.28;5113379;28;20090;-65
2023/02/24 11:17:45;;;;;;;13.85;7.80;;;;;;;17.25;47.08;99367.16;5112992;28;20043;-65
2023/02/24 11:20:24;;;;;;;12.35;8.13;;;;;;;17.29;47.14;99355.06;5112825;28;20130;-63
2023/02/24 11:22:56;;;;;;;11.77;8.30;;;;;;;17.35;47.29;99358.97;5113033;28;20050;-63
2023/02/24 11:25:35;;;;;;;11.77;8.30;;;;;;;17.39;47.33;99350.44;5112957;28;20050;-64
2023/02/24 11:28:04;;;;;;;11.85;7.97;;;;;;;17.39;47.17;99342.34;5112878;28;20052;-63
2023/02/24 11:30:42;;;;;;;10.95;7.78;;;;;;;17.49;47.39;99341.41;5112853;28;20146;-65
2023/02/24 11:33:29;;;;;;;11.52;8.05;;;;;;;17.54;47.44;99339.91;5112817;28;20047;-65
2023/02/24 11:36:04;;;;;;;11.77;7.82;;;;;;;17.56;47.34;99334.34;5112577;28;20492;-64
2023/02/24 11:38:42;;;;;;;11.80;7.82;;;;;;;17.61;47.27;99326.63;5112594;28;20048;-64
2023/02/24 11:41:19;;;;;;;11.43;7.80;;;;;;;17.66;47.41;99325.16;5112700;28;20052;-64
2023/02/24 11:43:57;;;;;;;12.20;8.45;;;;;;;17.71;47.32;99314.75;5111618;28;20310;-63
2023/02/24 11:46:35;;;;;;;11.32;7.72;;;;;;;17.72;47.12;99307.50;5113032;28;20096;-66
2023/02/24 11:49:21;;;;;;;12.05;7.95;;;;;;;17.81;47.21;99311.09;5112225;28;20071;-64
2023/02/24 11:51:51;;;;;;;10.82;7.55;;;;;;;17.86;47.21;99308.78;5112690;28;20075;-66
2023/02/24 11:54:22;;;;;;;11.60;7.93;;;;;;;17.91;47.60;99298.31;5112358;28;20118;-64
2023/02/24 11:56:54;;;;;;;11.52;8.50;;;;;;;17.95;47.18;99302.38;5112142;28;20051;-65
2023/02/24 11:59:31;;;;;;;12.13;8.23;;;;;;;17.98;47.24;99292.13;5112155;28;20050;-65
2023/02/24 12:02:10;;;;;;;12.02;7.85;;;;;;;18.04;47.38;99285.22;5112273;28;20044;-64
2023/02/24 12:04:49;;;;;;;10.68;7.82;;;;;;;18.09;47.38;99285.59;5111974;28;20093;-64
2023/02/24 12:07:23;;;;;;;10.57;7.40;;;;;;;18.14;47.29;99274.28;5112174;28;20526;-63
2023/02/24 12:09:56;;;;;;;11.10;7.85;;;;;;;18.18;47.46;99271.09;5112266;28;20145;-64
2023/02/24 12:12:47;;;;;;;11.95;7.75;;;;;;;18.22;47.30;99267.06;5112047;28;20495;-64